Time,TemperatureF,DewpointF,PressureIn,WindDirection,WindDirectionDegrees,WindSpeedMPH,WindSpeedGustMPH,Humidity,HourlyPrecipIn,Conditions,Clouds,dailyrainin,SoftwareType,DateUTC
2013-02-28 00:01:00,32.0,29.0,29.82,WNW,292,0.0,0.0,88,0.00,,,0.26,,2013-02-28 06:01:00,
2013-02-28 00:11:00,32.0,29.0,29.82,WNW,292,0.0,0.0,88,0.00,,,0.26,,2013-02-28 06:11:00,
2013-02-28 00:22:00,32.0,29.0,29.83,WNW,292,0.0,0.0,88,0.00,,,0.26,,2013-02-28 06:22:00,
2013-02-28 00:32:00,32.0,29.0,29.83,WNW,292,0.0,0.0,88,0.00,,,0.26,,2013-02-28 06:32:00,
2013-02-28 00:42:00,32.0,29.0,29.83,WNW,292,0.0,0.0,88,0.00,,,0.26,,2013-02-28 06:42:00,
2013-02-28 00:52:00,32.0,29.0,29.84,WNW,292,0.0,0.0,88,0.00,,,0.26,,2013-02-28 06:52:00,
2013-02-28 01:01:00,32.0,29.0,29.85,North,0,0.0,0.0,88,0.00,,,0.26,,2013-02-28 07:01:00,
2013-02-28 01:11:00,32.0,29.0,29.85,North,0,0.0,0.0,88,0.00,,,0.26,,2013-02-28 07:11:00,
2013-02-28 01:21:00,32.0,29.0,29.85,NW,315,0.0,0.0,89,0.00,,,0.26,,2013-02-28 07:21:00,
2013-02-28 01:31:00,32.0,29.0,29.85,NNW,341,0.0,0.0,89,0.00,,,0.26,,2013-02-28 07:31:00,
2013-02-28 01:41:00,32.0,29.0,29.85,NNW,341,0.0,0.0,89,0.00,,,0.26,,2013-02-28 07:41:00,
2013-02-28 01:52:00,32.0,29.0,29.85,NW,315,0.0,0.0,89,0.00,,,0.26,,2013-02-28 07:52:00,
2013-02-28 02:01:00,32.0,29.0,29.85,WNW,302,0.0,0.0,89,0.00,,,0.26,,2013-02-28 08:01:00,
2013-02-28 02:11:00,32.0,29.0,29.85,WNW,302,0.0,0.0,89,0.00,,,0.26,,2013-02-28 08:11:00,
2013-02-28 02:22:00,32.0,29.0,29.85,WNW,292,0.0,0.0,89,0.00,,,0.26,,2013-02-28 08:22:00,
2013-02-28 02:32:00,32.0,29.0,29.86,NW,323,0.0,0.0,89,0.00,,,0.26,,2013-02-28 08:32:00,
2013-02-28 02:42:00,32.0,29.0,29.86,NW,323,0.0,0.0,89,0.00,,,0.26,,2013-02-28 08:42:00,
2013-02-28 02:53:00,32.0,29.0,29.86,NNW,338,0.0,0.0,89,0.00,,,0.26,,2013-02-28 08:53:00,
2013-02-28 03:03:00,32.0,29.0,29.86,WNW,292,0.0,0.0,89,0.00,,,0.26,,2013-02-28 09:03:00,
2013-02-28 03:11:00,32.0,29.0,29.86,WNW,292,0.0,0.0,89,0.00,,,0.26,,2013-02-28 09:11:00,
2013-02-28 03:22:00,32.0,29.0,29.87,NW,315,0.0,0.0,89,0.00,,,0.26,,2013-02-28 09:22:00,
2013-02-28 03:32:00,32.0,29.0,29.87,NNW,337,0.0,0.0,89,0.00,,,0.26,,2013-02-28 09:32:00,
2013-02-28 03:42:00,32.0,29.0,29.87,NNW,337,0.0,0.0,89,0.00,,,0.26,,2013-02-28 09:42:00,
2013-02-28 03:52:00,32.0,29.0,29.88,NW,315,0.0,0.0,89,0.00,,,0.26,,2013-02-28 09:52:00,
2013-02-28 04:01:00,32.0,29.0,29.88,NW,313,0.0,0.0,89,0.02,,,0.28,,2013-02-28 10:01:00,
2013-02-28 04:11:00,32.0,29.0,29.88,NW,315,0.0,0.0,89,0.02,,,0.28,,2013-02-28 10:11:00,
2013-02-28 04:22:00,32.0,29.0,29.88,NW,315,0.0,0.0,89,0.02,,,0.28,,2013-02-28 10:22:00,
2013-02-28 04:32:00,32.0,29.0,29.88,WNW,292,0.0,0.0,89,0.02,,,0.28,,2013-02-28 10:32:00,
2013-02-28 04:42:00,32.0,29.0,29.88,WNW,292,0.0,0.0,89,0.02,,,0.28,,2013-02-28 10:42:00,
2013-02-28 04:52:00,32.0,29.0,29.89,NW,315,0.0,0.0,89,0.02,,,0.28,,2013-02-28 10:52:00,
2013-02-28 05:01:00,32.0,29.0,29.90,WNW,292,0.0,0.0,89,0.00,,,0.28,,2013-02-28 11:01:00,
2013-02-28 05:11:00,32.0,29.0,29.90,WNW,292,0.0,0.0,89,0.00,,,0.28,,2013-02-28 11:11:00,
2013-02-28 05:21:00,32.0,29.0,29.91,WNW,303,0.0,0.0,89,0.00,,,0.28,,2013-02-28 11:21:00,
2013-02-28 05:32:00,32.0,29.0,29.91,WNW,292,0.0,0.0,89,0.00,,,0.28,,2013-02-28 11:32:00,
2013-02-28 05:42:00,32.0,29.0,29.91,WNW,292,0.0,0.0,89,0.00,,,0.28,,2013-02-28 11:42:00,
2013-02-28 05:52:00,32.0,29.0,29.91,WNW,292,0.0,0.0,89,0.00,,,0.28,,2013-02-28 11:52:00,
2013-02-28 06:01:00,32.0,29.0,29.92,WNW,292,0.0,0.0,89,0.00,,,0.28,,2013-02-28 12:01:00,
2013-02-28 06:11:00,32.0,29.0,29.92,WNW,292,0.0,0.0,89,0.00,,,0.28,,2013-02-28 12:11:00,
2013-02-28 06:21:00,32.0,29.0,29.93,NNW,332,0.0,0.0,89,0.00,,,0.28,,2013-02-28 12:21:00,
2013-02-28 06:32:00,32.0,29.0,29.93,WNW,292,0.0,0.0,90,0.00,,,0.28,,2013-02-28 12:32:00,
2013-02-28 06:42:00,32.0,29.0,29.93,WNW,292,0.0,0.0,90,0.00,,,0.28,,2013-02-28 12:42:00,
2013-02-28 06:52:00,32.0,29.0,29.94,NW,326,0.0,0.0,90,0.00,,,0.28,,2013-02-28 12:52:00,
2013-02-28 07:01:00,32.0,29.0,29.94,North,0,0.0,0.0,89,0.00,,,0.28,,2013-02-28 13:01:00,
2013-02-28 07:11:00,32.0,29.0,29.94,NNE,13,0.0,0.0,90,0.00,,,0.28,,2013-02-28 13:11:00,
2013-02-28 07:22:00,32.0,29.0,29.94,NNE,13,0.0,0.0,90,0.00,,,0.28,,2013-02-28 13:22:00,
2013-02-28 07:32:00,33.0,30.0,29.95,NNW,338,0.0,0.0,90,0.00,,,0.28,,2013-02-28 13:32:00,
2013-02-28 07:42:00,33.0,30.0,29.95,NNW,338,0.0,0.0,90,0.00,,,0.28,,2013-02-28 13:42:00,
2013-02-28 07:52:00,33.0,30.0,29.96,WNW,292,0.0,0.0,90,0.02,,,0.30,,2013-02-28 13:52:00,
2013-02-28 08:01:00,33.0,30.0,29.97,WNW,303,0.0,0.0,90,0.02,,,0.28,,2013-02-28 14:01:00,
2013-02-28 08:11:00,33.0,30.0,29.98,WNW,292,0.0,0.0,90,0.02,,,0.28,,2013-02-28 14:11:00,
2013-02-28 08:22:00,33.0,30.0,29.98,WNW,292,0.0,0.0,90,0.02,,,0.28,,2013-02-28 14:22:00,
2013-02-28 08:32:00,33.0,30.0,29.98,North,5,0.0,0.0,90,0.02,,,0.28,,2013-02-28 14:32:00,
2013-02-28 08:42:00,33.0,30.0,29.99,WNW,292,0.0,0.0,90,0.02,,,0.30,,2013-02-28 14:42:00,
2013-02-28 08:52:00,33.0,30.0,29.99,WNW,292,0.0,0.0,90,0.02,,,0.30,,2013-02-28 14:52:00,
2013-02-28 09:02:00,33.0,30.0,30.00,NW,308,0.0,0.0,90,0.02,,,0.30,,2013-02-28 15:02:00,
2013-02-28 09:11:00,33.0,30.0,30.00,WNW,293,2.0,10.0,90,0.02,,,0.30,,2013-02-28 15:11:00,
2013-02-28 09:21:00,33.0,30.0,30.00,WNW,293,2.0,10.0,90,0.02,,,0.30,,2013-02-28 15:21:00,
2013-02-28 09:32:00,33.0,30.0,30.00,WNW,303,5.0,12.0,90,0.04,,,0.32,,2013-02-28 15:32:00,
2013-02-28 09:41:00,33.0,30.0,30.00,WNW,303,5.0,12.0,90,0.04,,,0.32,,2013-02-28 15:41:00,
2013-02-28 09:52:00,33.0,30.0,30.01,WNW,292,12.0,12.0,89,0.02,,,0.32,,2013-02-28 15:52:00,
2013-02-28 10:01:00,33.0,30.0,30.01,WNW,292,12.0,12.0,89,0.02,,,0.32,,2013-02-28 16:01:00,
2013-02-28 10:11:00,33.0,30.0,30.02,NW,315,1.0,8.0,88,0.02,,,0.26,,2013-02-28 16:11:00,
2013-02-28 10:22:00,33.0,30.0,30.02,NW,315,1.0,8.0,88,0.02,,,0.26,,2013-02-28 16:22:00,
2013-02-28 10:32:00,33.0,30.0,30.02,North,350,1.0,5.0,87,0.00,,,0.24,,2013-02-28 16:32:00,
2013-02-28 10:42:00,33.0,30.0,30.02,North,350,1.0,5.0,87,0.00,,,0.24,,2013-02-28 16:42:00,
2013-02-28 10:52:00,34.0,31.0,30.03,North,0,0.0,7.0,87,0.04,,,0.28,,2013-02-28 16:52:00,
2013-02-28 11:01:00,34.0,31.0,30.03,NW,315,0.0,0.0,87,0.04,,,0.26,,2013-02-28 17:01:00,
2013-02-28 11:11:00,34.0,31.0,30.03,NW,316,0.0,0.0,87,0.04,,,0.24,,2013-02-28 17:11:00,
2013-02-28 11:21:00,34.0,31.0,30.03,NW,316,0.0,0.0,87,0.04,,,0.24,,2013-02-28 17:21:00,
2013-02-28 11:32:00,34.0,31.0,30.03,NW,316,0.0,0.0,87,0.04,,,0.24,,2013-02-28 17:32:00,
2013-02-28 11:42:00,34.0,31.0,30.03,NW,316,0.0,0.0,87,0.04,,,0.24,,2013-02-28 17:42:00,
2013-02-28 11:52:00,34.0,31.0,30.04,NW,316,0.0,0.0,87,0.00,,,0.22,,2013-02-28 17:52:00,
2013-02-28 12:02:00,34.0,31.0,30.04,NNW,338,1.0,1.0,87,0.00,,,0.22,,2013-02-28 18:02:00,
2013-02-28 12:11:00,34.0,31.0,30.04,NNW,338,1.0,1.0,87,0.00,,,0.20,,2013-02-28 18:11:00,
2013-02-28 12:22:00,34.0,31.0,30.04,NNW,338,1.0,1.0,87,0.00,,,0.20,,2013-02-28 18:22:00,
2013-02-28 12:32:00,34.0,31.0,30.04,NNW,339,1.0,1.0,87,0.00,,,0.18,,2013-02-28 18:32:00,
2013-02-28 12:42:00,34.0,31.0,30.04,NNW,339,1.0,1.0,87,0.00,,,0.18,,2013-02-28 18:42:00,
2013-02-28 12:52:00,34.0,31.0,30.04,NNW,339,1.0,1.0,87,0.00,,,0.18,,2013-02-28 18:52:00,
2013-02-28 13:01:00,34.0,31.0,30.04,NNW,339,1.0,1.0,87,0.00,,,0.16,,2013-02-28 19:01:00,
2013-02-28 13:11:00,34.0,31.0,30.04,NNW,339,1.0,1.0,87,0.00,,,0.16,,2013-02-28 19:11:00,
2013-02-28 13:21:00,34.0,31.0,30.05,NNW,339,1.0,1.0,87,0.00,,,0.16,,2013-02-28 19:21:00,
2013-02-28 13:32:00,34.0,31.0,30.06,NNW,339,1.0,1.0,87,0.00,,,0.16,,2013-02-28 19:32:00,
2013-02-28 13:41:00,34.0,31.0,30.06,NNW,339,1.0,1.0,87,0.00,,,0.16,,2013-02-28 19:41:00,
2013-02-28 13:52:00,34.0,31.0,30.06,NNW,339,1.0,1.0,87,0.00,,,0.14,,2013-02-28 19:52:00,
2013-02-28 14:01:00,34.0,31.0,30.06,NNW,339,1.0,1.0,87,0.00,,,0.14,,2013-02-28 20:01:00,
2013-02-28 14:12:00,34.0,31.0,30.06,NNW,339,1.0,1.0,87,0.00,,,0.14,,2013-02-28 20:12:00,
2013-02-28 14:21:00,34.0,31.0,30.06,NNW,339,1.0,1.0,87,0.00,,,0.14,,2013-02-28 20:21:00,
2013-02-28 14:32:00,34.0,31.0,30.07,NNW,339,1.0,1.0,87,0.00,,,0.14,,2013-02-28 20:32:00,
2013-02-28 14:42:00,34.0,31.0,30.07,NNW,339,1.0,1.0,87,0.00,,,0.14,,2013-02-28 20:42:00,
2013-02-28 14:52:00,34.0,31.0,30.08,NNW,339,1.0,1.0,87,0.00,,,0.12,,2013-02-28 20:52:00,
2013-02-28 15:01:00,34.0,27.0,30.08,WNW,292,6.0,6.0,76,0.00,,,0.12,,2013-02-28 21:01:00,
2013-02-28 15:11:00,34.0,27.0,30.08,WNW,292,6.0,6.0,76,0.00,,,0.12,,2013-02-28 21:11:00,
2013-02-28 15:22:00,34.0,27.0,30.09,NNW,342,6.0,12.0,75,0.16,,,0.28,,2013-02-28 21:22:00,
2013-02-28 15:32:00,33.0,26.0,30.09,WNW,293,12.0,12.0,74,0.16,,,0.28,,2013-02-28 21:32:00,
2013-02-28 15:41:00,33.0,26.0,30.09,WNW,293,12.0,12.0,74,0.16,,,0.28,,2013-02-28 21:41:00,
2013-02-28 15:52:00,33.0,26.0,30.11,NW,325,2.0,10.0,74,0.16,,,0.28,,2013-02-28 21:52:00,
2013-02-28 16:01:00,33.0,26.0,30.11,WNW,303,4.0,9.0,74,0.16,,,0.28,,2013-02-28 22:01:00,
2013-02-28 16:11:00,33.0,26.0,30.12,WNW,298,3.0,9.0,74,0.00,,,0.28,,2013-02-28 22:11:00,
2013-02-28 16:21:00,33.0,26.0,30.12,WNW,298,3.0,9.0,74,0.00,,,0.28,,2013-02-28 22:21:00,
2013-02-28 16:32:00,33.0,26.0,30.13,NW,321,3.0,7.0,74,0.00,,,0.28,,2013-02-28 22:32:00,
2013-02-28 16:41:00,33.0,26.0,30.13,NW,321,3.0,7.0,74,0.00,,,0.28,,2013-02-28 22:41:00,
2013-02-28 16:52:00,32.0,25.0,30.13,NW,309,10.0,12.0,75,0.00,,,0.28,,2013-02-28 22:52:00,
2013-02-28 17:01:00,32.0,25.0,30.13,NW,325,6.0,16.0,76,0.00,,,0.28,,2013-02-28 23:01:00,
2013-02-28 17:11:00,31.0,25.0,30.14,NNE,22,7.0,13.0,78,0.00,,,0.28,,2013-02-28 23:11:00,
2013-02-28 17:22:00,31.0,25.0,30.14,NNE,22,7.0,13.0,78,0.00,,,0.28,,2013-02-28 23:22:00,
2013-02-28 17:31:00,31.0,25.0,30.15,NNW,348,9.0,10.0,78,0.00,,,0.28,,2013-02-28 23:31:00,
2013-02-28 17:41:00,31.0,25.0,30.15,NNW,348,9.0,10.0,78,0.00,,,0.28,,2013-02-28 23:41:00,
2013-02-28 17:53:00,31.0,25.0,30.16,NNW,338,13.0,18.0,79,0.00,,,0.28,,2013-02-28 23:53:00,
2013-02-28 18:01:00,30.0,24.0,30.16,NNW,333,7.0,8.0,79,0.00,,,0.28,,2013-03-01 00:01:00,
2013-02-28 18:11:00,30.0,24.0,30.16,NNW,333,7.0,8.0,79,0.00,,,0.28,,2013-03-01 00:11:00,
2013-02-28 18:22:00,30.0,24.0,30.17,NW,315,6.0,7.0,78,0.00,,,0.28,,2013-03-01 00:22:00,
2013-02-28 18:32:00,30.0,24.0,30.17,NNW,338,10.0,13.0,78,0.00,,,0.28,,2013-03-01 00:32:00,
2013-02-28 18:41:00,30.0,24.0,30.17,NNW,338,10.0,13.0,78,0.00,,,0.28,,2013-03-01 00:41:00,
2013-02-28 18:52:00,30.0,23.0,30.17,WNW,292,5.0,6.0,76,0.00,,,0.28,,2013-03-01 00:52:00,
2013-02-28 19:01:00,30.0,23.0,30.17,NNE,22,6.0,7.0,74,0.00,,,0.28,,2013-03-01 01:01:00,
2013-02-28 19:11:00,30.0,22.0,30.18,North,0,6.0,6.0,73,0.00,,,0.28,,2013-03-01 01:11:00,
2013-02-28 19:21:00,30.0,22.0,30.18,North,0,6.0,6.0,73,0.00,,,0.28,,2013-03-01 01:21:00,
2013-02-28 19:32:00,30.0,22.0,30.18,NNE,22,5.0,7.0,73,0.00,,,0.28,,2013-03-01 01:32:00,
2013-02-28 19:42:00,30.0,22.0,30.18,NNE,22,5.0,7.0,73,0.00,,,0.28,,2013-03-01 01:42:00,
2013-02-28 19:52:00,30.0,22.0,30.18,North,0,2.0,3.0,73,0.00,,,0.28,,2013-03-01 01:52:00,
2013-02-28 20:01:00,30.0,22.0,30.17,North,0,2.0,3.0,73,0.00,,,0.28,,2013-03-01 02:01:00,
2013-02-28 20:11:00,30.0,22.0,30.17,NW,315,2.0,5.0,72,0.00,,,0.28,,2013-03-01 02:11:00,
2013-02-28 20:21:00,30.0,22.0,30.17,NW,315,2.0,5.0,72,0.00,,,0.28,,2013-03-01 02:21:00,
2013-02-28 20:31:00,30.0,22.0,30.17,NNE,22,3.0,5.0,72,0.00,,,0.28,,2013-03-01 02:31:00,
2013-02-28 20:42:00,30.0,22.0,30.17,NNE,22,3.0,5.0,72,0.00,,,0.28,,2013-03-01 02:42:00,
2013-02-28 20:52:00,30.0,23.0,30.17,NNW,338,1.0,7.0,74,0.00,,,0.28,,2013-03-01 02:52:00,
2013-02-28 21:01:00,30.0,23.0,30.17,WNW,292,3.0,7.0,74,0.00,,,0.28,,2013-03-01 03:01:00,
2013-02-28 21:11:00,30.0,22.0,30.17,NNW,338,6.0,7.0,73,0.00,,,0.28,,2013-03-01 03:11:00,
2013-02-28 21:21:00,30.0,22.0,30.17,NNW,338,6.0,7.0,73,0.00,,,0.28,,2013-03-01 03:21:00,
2013-02-28 21:32:00,30.0,22.0,30.18,WNW,292,5.0,9.0,73,0.00,,,0.28,,2013-03-01 03:32:00,
2013-02-28 21:42:00,30.0,22.0,30.18,WNW,292,5.0,9.0,73,0.00,,,0.28,,2013-03-01 03:42:00,
2013-02-28 21:52:00,30.0,22.0,30.18,NNW,346,7.0,7.0,72,0.00,,,0.28,,2013-03-01 03:52:00,
2013-02-28 22:01:00,30.0,22.0,30.18,NNE,22,0.0,6.0,72,0.00,,,0.28,,2013-03-01 04:01:00,
2013-02-28 22:11:00,30.0,22.0,30.18,NNE,22,0.0,6.0,72,0.00,,,0.28,,2013-03-01 04:11:00,
2013-02-28 22:21:00,30.0,22.0,30.18,NW,318,0.0,8.0,71,0.00,,,0.28,,2013-03-01 04:21:00,
2013-02-28 22:32:00,30.0,22.0,30.18,NW,315,2.0,8.0,71,0.00,,,0.28,,2013-03-01 04:32:00,
2013-02-28 22:42:00,30.0,22.0,30.18,NW,315,2.0,8.0,71,0.00,,,0.28,,2013-03-01 04:42:00,
2013-02-28 22:52:00,29.0,21.0,30.18,NW,306,3.0,3.0,71,0.00,,,0.28,,2013-03-01 04:52:00,
2013-02-28 23:02:00,29.0,21.0,30.18,WNW,293,6.0,10.0,72,0.00,,,0.28,,2013-03-01 05:02:00,
2013-02-28 23:11:00,29.0,21.0,30.18,WNW,293,6.0,10.0,72,0.00,,,0.28,,2013-03-01 05:11:00,
2013-02-28 23:22:00,29.0,21.0,30.18,West,270,0.0,6.0,73,0.00,,,0.28,,2013-03-01 05:22:00,
2013-02-28 23:32:00,29.0,21.0,30.18,West,270,0.0,6.0,73,0.00,,,0.28,,2013-03-01 05:32:00,
2013-02-28 23:42:00,29.0,21.0,30.18,West,270,0.0,6.0,73,0.00,,,0.28,,2013-03-01 05:42:00,
2013-02-28 23:52:00,29.0,22.0,30.18,WNW,300,1.0,9.0,76,0.00,,,0.28,,2013-03-01 05:52:00,